createdAt,value
2024-03-05T00:00:17.483Z,8.55
2024-03-05T00:02:44.369Z,8.52
2024-03-05T00:05:11.523Z,9.07
2024-03-05T00:07:38.163Z,8.75
2024-03-05T00:10:05.002Z,8.57
2024-03-05T00:12:31.986Z,8.02
2024-03-05T00:14:58.641Z,8.25
2024-03-05T00:17:25.267Z,7.90
2024-03-05T00:19:52.270Z,8.05
2024-03-05T00:22:22.299Z,8.73
2024-03-05T00:24:49.023Z,8.52
2024-03-05T00:27:15.625Z,9.15
2024-03-05T00:29:42.318Z,8.88
2024-03-05T00:32:09.022Z,9.57
2024-03-05T00:34:35.871Z,7.82
2024-03-05T00:37:02.623Z,9.88
2024-03-05T00:39:29.261Z,8.15
2024-03-05T00:41:55.944Z,8.85
2024-03-05T00:44:22.587Z,7.93
2024-03-05T00:46:49.263Z,8.18
2024-03-05T00:49:16.041Z,9.70
2024-03-05T00:51:42.828Z,9.00
2024-03-05T00:54:09.505Z,6.57
2024-03-05T00:56:36.176Z,8.88
2024-03-05T00:59:02.840Z,9.00
2024-03-05T01:01:29.534Z,8.13
2024-03-05T01:03:56.181Z,8.80
2024-03-05T01:06:22.795Z,8.10
2024-03-05T01:08:49.416Z,8.75
2024-03-05T01:11:16.114Z,7.03
2024-03-05T01:13:42.866Z,8.25
2024-03-05T01:16:09.571Z,9.48
2024-03-05T01:18:36.184Z,7.97
2024-03-05T01:21:02.839Z,9.43
2024-03-05T01:23:29.495Z,7.95
2024-03-05T01:25:56.167Z,8.35
2024-03-05T01:28:22.942Z,8.40
2024-03-05T01:30:49.650Z,8.45
2024-03-05T01:33:16.318Z,7.95
2024-03-05T01:35:43.035Z,9.23
2024-03-05T01:38:09.629Z,7.90
2024-03-05T01:40:36.282Z,8.63
2024-03-05T01:43:02.998Z,7.93
2024-03-05T01:45:29.644Z,7.85
2024-03-05T01:47:56.353Z,7.90
2024-03-05T01:50:23.016Z,7.53
2024-03-05T01:52:49.739Z,8.45
2024-03-05T01:55:16.414Z,8.10
2024-03-05T01:57:43.285Z,8.85
2024-03-05T02:00:10.558Z,8.40
2024-03-05T02:02:37.665Z,7.40
2024-03-05T02:05:04.529Z,7.90
2024-03-05T02:07:31.239Z,8.98
2024-03-05T02:09:57.979Z,8.30
2024-03-05T02:12:24.737Z,7.65
2024-03-05T02:14:51.400Z,8.07
2024-03-05T02:17:18.119Z,8.13
2024-03-05T02:19:48.373Z,8.10
2024-03-05T02:22:15.125Z,9.07
2024-03-05T02:24:41.744Z,8.57
2024-03-05T02:27:11.904Z,8.23
2024-03-05T02:29:41.076Z,8.85
2024-03-05T02:32:08.021Z,9.05
2024-03-05T02:34:34.960Z,7.00
2024-03-05T02:37:01.671Z,10.27
2024-03-05T02:39:28.261Z,8.02
2024-03-05T02:41:54.908Z,8.35
2024-03-05T02:44:21.624Z,8.05
2024-03-05T02:46:48.246Z,8.13
2024-03-05T02:49:15.224Z,9.85
2024-03-05T02:51:42.144Z,9.05
2024-03-05T02:54:08.780Z,9.15
2024-03-05T02:56:35.375Z,9.73
2024-03-05T02:59:02.122Z,8.73
2024-03-05T03:01:28.825Z,9.15
2024-03-05T03:03:55.482Z,8.70
2024-03-05T03:06:22.055Z,7.47
2024-03-05T03:08:48.641Z,8.65
2024-03-05T03:11:16.247Z,8.32
2024-03-05T03:13:42.987Z,8.45
2024-03-05T03:16:09.612Z,7.60
2024-03-05T03:18:36.326Z,8.50
2024-03-05T03:21:03.021Z,8.50
2024-03-05T03:23:29.781Z,8.07
2024-03-05T03:25:56.476Z,7.03
2024-03-05T03:28:23.135Z,8.00
2024-03-05T03:30:49.778Z,7.90
2024-03-05T03:33:16.456Z,8.00
2024-03-05T03:35:43.056Z,8.38
2024-03-05T03:38:09.675Z,7.57
2024-03-05T03:40:36.302Z,8.20
2024-03-05T03:43:02.960Z,8.40
2024-03-05T03:45:29.607Z,7.65
2024-03-05T03:47:56.260Z,8.48
2024-03-05T03:50:22.954Z,8.10
2024-03-05T03:52:49.772Z,8.00
2024-03-05T03:55:17.089Z,8.27
2024-03-05T03:57:44.112Z,7.95
2024-03-05T04:00:11.298Z,8.52
2024-03-05T04:02:37.951Z,8.77
2024-03-05T04:05:07.564Z,7.88
2024-03-05T04:07:34.358Z,9.35
2024-03-05T04:10:01.029Z,8.10
2024-03-05T04:12:28.435Z,7.95
2024-03-05T04:14:55.662Z,8.77
2024-03-05T04:17:22.412Z,6.55
2024-03-05T04:19:49.076Z,8.18
2024-03-05T04:22:15.770Z,9.30
2024-03-05T04:24:42.621Z,7.97
2024-03-05T04:27:09.206Z,8.60
2024-03-05T04:29:35.872Z,8.80
2024-03-05T04:32:02.477Z,7.35
2024-03-05T04:34:29.152Z,8.70
2024-03-05T04:36:57.862Z,7.32
2024-03-05T04:39:26.000Z,9.18
2024-03-05T04:41:52.671Z,8.18
2024-03-05T04:44:19.322Z,7.88
2024-03-05T04:46:46.003Z,7.85
2024-03-05T04:49:12.638Z,8.48
2024-03-05T04:51:39.235Z,8.55
2024-03-05T04:54:05.938Z,8.07
2024-03-05T04:56:32.633Z,7.68
2024-03-05T04:58:59.378Z,8.75
2024-03-05T05:01:26.193Z,8.10
2024-03-05T05:03:52.930Z,7.47
2024-03-05T05:06:19.510Z,8.82
2024-03-05T05:08:46.133Z,9.13
2024-03-05T05:11:12.853Z,8.38
2024-03-05T05:13:39.552Z,8.52
2024-03-05T05:16:06.508Z,8.88
2024-03-05T05:18:33.235Z,8.18
2024-03-05T05:20:59.909Z,7.43
2024-03-05T05:23:26.640Z,8.82
2024-03-05T05:25:53.321Z,9.80
2024-03-05T05:28:20.015Z,7.18
2024-03-05T05:30:46.685Z,8.52
2024-03-05T05:33:13.429Z,8.65
2024-03-05T05:35:40.018Z,8.45
2024-03-05T05:38:07.802Z,8.02
2024-03-05T05:40:34.450Z,7.90
2024-03-05T05:43:01.076Z,8.93
2024-03-05T05:45:27.698Z,8.38
2024-03-05T05:47:54.396Z,7.93
2024-03-05T05:50:21.725Z,9.02
2024-03-05T05:52:49.668Z,7.85
2024-03-05T05:55:17.819Z,7.65
2024-03-05T05:57:48.129Z,8.30
2024-03-05T06:00:25.886Z,7.43
2024-03-05T06:02:55.342Z,7.25
2024-03-05T06:05:27.127Z,8.63
2024-03-05T06:07:53.774Z,8.20
2024-03-05T06:10:20.654Z,8.13
2024-03-05T06:12:47.261Z,8.20
2024-03-05T06:15:13.876Z,8.38
2024-03-05T06:17:40.934Z,8.57
2024-03-05T06:20:09.291Z,8.77
2024-03-05T06:22:36.000Z,7.78
2024-03-05T06:25:02.652Z,8.93
2024-03-05T06:27:29.228Z,8.65
2024-03-05T06:29:55.834Z,8.20
2024-03-05T06:32:22.449Z,7.53
2024-03-05T06:34:49.178Z,8.85
2024-03-05T06:37:15.924Z,7.78
2024-03-05T06:39:42.565Z,9.23
2024-03-05T06:42:09.201Z,7.88
2024-03-05T06:44:35.842Z,8.32
2024-03-05T06:47:02.554Z,8.07
2024-03-05T06:49:29.391Z,7.88
2024-03-05T06:51:56.158Z,7.30
2024-03-05T06:54:22.860Z,9.13
2024-03-05T06:56:49.482Z,8.20
2024-03-05T06:59:16.139Z,8.00
2024-03-05T07:01:42.875Z,7.43
2024-03-05T07:04:09.532Z,7.07
2024-03-05T07:06:36.183Z,8.57
2024-03-05T07:09:02.748Z,8.35
2024-03-05T07:11:29.522Z,7.50
2024-03-05T07:13:56.171Z,8.60
2024-03-05T07:16:23.508Z,7.65
2024-03-05T07:18:51.679Z,7.60
2024-03-05T07:21:18.864Z,7.72
2024-03-05T07:23:45.468Z,8.05
2024-03-05T07:26:12.156Z,7.35
2024-03-05T07:28:38.882Z,7.70
2024-03-05T07:31:05.495Z,7.10
2024-03-05T07:33:32.168Z,7.22
2024-03-05T07:35:58.765Z,6.88
2024-03-05T07:38:25.410Z,8.32
2024-03-05T07:40:52.038Z,7.47
2024-03-05T07:43:18.712Z,7.82
2024-03-05T07:45:47.488Z,7.70
2024-03-05T07:48:15.500Z,7.30
2024-03-05T07:50:42.483Z,7.20
2024-03-05T07:53:09.391Z,7.53
2024-03-05T07:55:42.845Z,6.85
2024-03-05T07:58:12.855Z,8.07
2024-03-05T08:00:39.466Z,6.25
2024-03-05T08:03:06.148Z,6.72
2024-03-05T08:05:32.707Z,6.00
2024-03-05T08:07:59.429Z,6.72
2024-03-05T08:10:26.588Z,6.65
2024-03-05T08:12:54.182Z,7.40
2024-03-05T08:15:20.886Z,7.13
2024-03-05T08:17:48.448Z,6.25
2024-03-05T08:20:21.726Z,6.60
2024-03-05T08:22:48.527Z,5.53
2024-03-05T08:25:15.738Z,6.38
2024-03-05T08:27:48.691Z,5.70
2024-03-05T08:30:20.533Z,6.07
2024-03-05T08:32:47.229Z,5.18
2024-03-05T08:35:13.880Z,5.38
2024-03-05T08:37:41.112Z,5.25
2024-03-05T08:40:11.720Z,4.72
2024-03-05T08:42:38.312Z,4.68
2024-03-05T08:45:05.304Z,4.18
2024-03-05T08:47:32.049Z,4.40
2024-03-05T08:49:58.819Z,5.03
2024-03-05T08:52:25.625Z,4.82
2024-03-05T08:54:52.274Z,5.18
2024-03-05T08:57:18.859Z,4.80
2024-03-05T08:59:45.532Z,4.55
2024-03-05T09:02:12.121Z,5.18
2024-03-05T09:04:38.758Z,4.28
2024-03-05T09:07:05.329Z,5.30
2024-03-05T09:09:31.958Z,4.38
2024-03-05T09:11:58.686Z,4.65
2024-03-05T09:14:26.812Z,4.40
2024-03-05T09:16:53.428Z,4.78
2024-03-05T09:19:21.112Z,4.60
2024-03-05T09:21:47.692Z,5.57
2024-03-05T09:24:14.360Z,4.93
2024-03-05T09:26:41.022Z,4.90
2024-03-05T09:29:07.653Z,4.18
2024-03-05T09:31:34.353Z,4.00
2024-03-05T09:34:00.919Z,5.07
2024-03-05T09:36:27.464Z,4.78
2024-03-05T09:38:54.006Z,4.90
2024-03-05T09:41:20.514Z,4.75
2024-03-05T09:43:47.231Z,4.20
2024-03-05T09:46:14.396Z,4.97
2024-03-05T09:48:41.082Z,4.28
2024-03-05T09:51:10.915Z,4.68
2024-03-05T09:53:38.022Z,4.30
2024-03-05T09:56:05.086Z,4.60
2024-03-05T09:58:40.889Z,4.70
2024-03-05T10:01:09.903Z,4.70
2024-03-05T10:03:39.135Z,4.80
2024-03-05T10:06:06.387Z,4.80
2024-03-05T10:08:33.089Z,4.85
2024-03-05T10:11:04.701Z,4.45
2024-03-05T10:13:35.404Z,5.38
2024-03-05T10:16:20.950Z,4.55
2024-03-05T10:18:47.947Z,4.28
2024-03-05T10:21:21.102Z,4.85
2024-03-05T10:23:56.789Z,5.70
2024-03-05T10:28:50.181Z,4.03
2024-03-05T10:31:21.435Z,4.20
2024-03-05T10:33:48.104Z,4.18
2024-03-05T10:36:26.768Z,4.18
2024-03-05T10:38:53.698Z,3.55
2024-03-05T10:41:39.223Z,3.70
2024-03-05T10:44:13.650Z,4.78
2024-03-05T10:46:40.381Z,3.88
2024-03-05T10:49:07.933Z,3.67
2024-03-05T10:51:41.762Z,4.22
2024-03-05T10:54:08.980Z,3.83
2024-03-05T10:56:43.375Z,4.00
2024-03-05T10:59:11.299Z,3.63
2024-03-05T11:01:38.602Z,4.15
2024-03-05T11:04:15.681Z,4.25
2024-03-05T11:06:42.401Z,3.92
2024-03-05T11:09:12.068Z,3.95
2024-03-05T11:14:06.690Z,3.65
2024-03-05T11:16:34.240Z,3.67
2024-03-05T11:19:04.179Z,3.00
2024-03-05T11:21:30.779Z,3.38
2024-03-05T11:23:57.353Z,4.20
2024-03-05T11:26:25.276Z,3.00
2024-03-05T11:29:06.679Z,3.63
2024-03-05T11:34:12.399Z,3.35
2024-03-05T11:36:39.092Z,3.78
2024-03-05T11:39:05.713Z,3.75
2024-03-05T11:41:33.240Z,4.13
2024-03-05T11:43:59.930Z,3.53
2024-03-05T11:46:48.697Z,3.53
2024-03-05T11:49:16.214Z,4.13
2024-03-05T11:51:46.686Z,3.65
2024-03-05T11:54:18.669Z,3.55
2024-03-05T11:56:47.751Z,3.28
2024-03-05T11:59:14.420Z,4.20
2024-03-05T12:01:44.409Z,3.25
2024-03-05T12:04:11.515Z,4.50
2024-03-05T12:06:39.444Z,3.33
2024-03-05T12:09:16.085Z,3.50
2024-03-05T12:11:42.698Z,3.50
2024-03-05T12:14:09.977Z,3.47
2024-03-05T12:16:37.434Z,3.53
2024-03-05T12:19:04.105Z,3.03
2024-03-05T12:21:33.234Z,3.05
2024-03-05T12:24:00.170Z,3.13
2024-03-05T12:26:26.850Z,3.45
2024-03-05T12:28:53.932Z,3.30
2024-03-05T12:31:20.632Z,3.58
2024-03-05T12:33:47.253Z,3.28
2024-03-05T12:36:13.908Z,3.50
2024-03-05T12:38:40.479Z,3.22
2024-03-05T12:41:07.167Z,3.03
2024-03-05T12:43:35.180Z,3.63
2024-03-05T12:46:01.851Z,3.30
2024-03-05T12:48:28.457Z,3.72
2024-03-05T12:50:55.093Z,3.08
2024-03-05T12:53:21.590Z,2.63
2024-03-05T12:55:48.226Z,3.08
2024-03-05T12:58:14.917Z,3.35
2024-03-05T13:00:41.495Z,3.45
2024-03-05T13:03:08.718Z,3.55
2024-03-05T13:05:36.140Z,3.25
2024-03-05T13:08:03.106Z,2.90
2024-03-05T13:10:29.848Z,2.58
2024-03-05T13:12:56.457Z,2.83
2024-03-05T13:15:23.109Z,2.88
2024-03-05T13:17:49.725Z,3.10
2024-03-05T13:20:16.493Z,3.42
2024-03-05T13:22:43.122Z,3.05
2024-03-05T13:25:09.778Z,3.50
2024-03-05T13:27:36.416Z,2.75
2024-03-05T13:30:10.045Z,2.72
2024-03-05T13:32:39.558Z,3.05
2024-03-05T13:35:06.489Z,3.17
2024-03-05T13:37:33.312Z,2.63
2024-03-05T13:39:59.979Z,3.00
2024-03-05T13:42:26.649Z,2.92
2024-03-05T13:44:53.216Z,2.85
2024-03-05T13:47:19.801Z,2.58
2024-03-05T13:49:46.395Z,2.55
2024-03-05T13:52:13.098Z,3.45
2024-03-05T13:54:39.994Z,2.75
2024-03-05T13:57:06.636Z,2.60
2024-03-05T13:59:33.249Z,2.83
2024-03-05T14:02:00.861Z,3.22
2024-03-05T14:04:27.602Z,3.30
2024-03-05T14:06:54.182Z,3.45
2024-03-05T14:09:20.835Z,3.00
2024-03-05T14:11:48.229Z,3.30
2024-03-05T14:14:16.018Z,3.10
2024-03-05T14:16:42.611Z,3.20
2024-03-05T14:19:09.259Z,3.10
2024-03-05T14:21:36.000Z,2.72
2024-03-05T14:24:02.608Z,2.67
2024-03-05T14:26:29.288Z,3.03
2024-03-05T14:28:55.932Z,3.20
2024-03-05T14:31:22.740Z,2.90
2024-03-05T14:33:49.777Z,3.00
2024-03-05T14:36:16.391Z,3.10
2024-03-05T14:38:43.021Z,3.20
2024-03-05T14:41:09.788Z,2.38
2024-03-05T14:43:36.767Z,2.85
2024-03-05T14:46:03.543Z,2.58
2024-03-05T14:48:30.393Z,2.53
2024-03-05T14:50:57.302Z,2.53
2024-03-05T14:53:23.975Z,3.20
2024-03-05T14:55:50.614Z,3.30
2024-03-05T14:58:17.238Z,3.20
2024-03-05T15:00:43.831Z,3.33
2024-03-05T15:03:10.415Z,3.03
2024-03-05T15:05:37.043Z,3.10
2024-03-05T15:08:04.033Z,3.00
2024-03-05T15:10:30.923Z,3.03
2024-03-05T15:12:57.583Z,2.75
2024-03-05T15:15:24.246Z,3.08
2024-03-05T15:17:51.330Z,3.15
2024-03-05T15:20:18.526Z,3.63
2024-03-05T15:22:48.790Z,2.75
2024-03-05T15:25:16.132Z,2.90
2024-03-05T15:27:45.703Z,4.10
2024-03-05T15:30:13.800Z,3.15
2024-03-05T15:32:43.479Z,3.15
2024-03-05T15:37:36.622Z,2.80
2024-03-05T15:40:03.269Z,3.08
2024-03-05T15:42:29.885Z,2.65
2024-03-05T15:44:56.452Z,2.65
2024-03-05T15:47:23.224Z,3.45
2024-03-05T15:49:49.869Z,2.90
2024-03-05T15:52:16.551Z,2.80
2024-03-05T15:54:43.129Z,2.97
2024-03-05T15:57:09.740Z,2.90
2024-03-05T15:59:36.328Z,3.05
2024-03-05T16:02:03.012Z,2.60
2024-03-05T16:04:48.976Z,2.45
2024-03-05T16:07:16.364Z,2.95
2024-03-05T16:09:43.029Z,2.85
2024-03-05T16:12:11.960Z,2.97
2024-03-05T16:14:39.777Z,3.45
2024-03-05T16:17:06.440Z,3.58
2024-03-05T16:19:33.103Z,3.22
2024-03-05T16:21:59.816Z,3.58
2024-03-05T16:24:26.446Z,3.28
2024-03-05T16:26:53.021Z,3.22
2024-03-05T16:29:19.644Z,3.47
2024-03-05T16:31:46.375Z,2.78
2024-03-05T16:34:12.977Z,3.05
2024-03-05T16:36:39.636Z,3.20
2024-03-05T16:39:06.314Z,2.97
2024-03-05T16:41:34.233Z,3.03
2024-03-05T16:44:01.839Z,2.85
2024-03-05T16:46:29.448Z,3.78
2024-03-05T16:48:56.088Z,4.05
2024-03-05T16:51:22.702Z,3.78
2024-03-05T16:53:49.310Z,3.63
2024-03-05T16:56:16.064Z,3.58
2024-03-05T16:58:42.758Z,2.92
2024-03-05T17:01:09.422Z,3.30
2024-03-05T17:03:36.166Z,2.80
2024-03-05T17:06:02.771Z,2.88
2024-03-05T17:08:29.384Z,2.08
2024-03-05T17:10:56.159Z,2.72
2024-03-05T17:13:23.227Z,2.95
2024-03-05T17:15:50.056Z,2.70
2024-03-05T17:18:16.728Z,2.90
2024-03-05T17:20:43.311Z,2.72
2024-03-05T17:23:10.027Z,2.58
2024-03-05T17:25:36.727Z,3.22
2024-03-05T17:28:03.303Z,3.00
2024-03-05T17:30:29.891Z,3.70
2024-03-05T17:32:56.575Z,4.32
2024-03-05T17:35:23.231Z,3.60
2024-03-05T17:37:49.892Z,3.00
2024-03-05T17:40:16.486Z,2.90
2024-03-05T17:42:43.646Z,2.80
2024-03-05T17:45:12.212Z,2.42
2024-03-05T17:47:39.515Z,3.17
2024-03-05T17:50:12.761Z,2.67
2024-03-05T17:52:40.287Z,2.70
2024-03-05T17:55:08.478Z,3.05
2024-03-05T17:57:42.278Z,3.42
2024-03-05T18:00:09.165Z,2.90
2024-03-05T18:02:35.799Z,2.63
2024-03-05T18:05:02.505Z,3.58
2024-03-05T18:07:29.194Z,2.80
2024-03-05T18:09:55.851Z,3.72
2024-03-05T18:12:22.499Z,3.55
2024-03-05T18:14:49.103Z,3.33
2024-03-05T18:17:15.786Z,4.03
2024-03-05T18:19:42.494Z,3.05
2024-03-05T18:22:09.126Z,4.00
2024-03-05T18:24:35.748Z,3.33
2024-03-05T18:27:02.355Z,3.63
2024-03-05T18:29:28.962Z,3.53
2024-03-05T18:31:55.612Z,4.15
2024-03-05T18:34:22.170Z,3.78
2024-03-05T18:36:48.774Z,4.72
2024-03-05T18:39:15.354Z,4.78
2024-03-05T18:41:41.949Z,3.95
2024-03-05T18:44:08.665Z,4.43
2024-03-05T18:46:35.290Z,3.92
2024-03-05T18:49:01.888Z,4.78
2024-03-05T18:51:28.536Z,4.78
2024-03-05T18:53:55.147Z,4.63
2024-03-05T18:56:21.754Z,4.00
2024-03-05T18:58:48.484Z,4.60
2024-03-05T19:01:15.269Z,5.75
2024-03-05T19:03:42.396Z,5.05
2024-03-05T19:06:08.987Z,4.63
2024-03-05T19:08:35.561Z,5.28
2024-03-05T19:11:02.250Z,4.60
2024-03-05T19:13:28.965Z,4.57
2024-03-05T19:15:55.563Z,4.32
2024-03-05T19:18:22.269Z,4.90
2024-03-05T19:20:48.934Z,5.72
2024-03-05T19:23:15.605Z,4.95
2024-03-05T19:25:42.276Z,5.28
2024-03-05T19:28:08.870Z,5.75
2024-03-05T19:30:35.497Z,5.38
2024-03-05T19:33:02.131Z,5.72
2024-03-05T19:35:28.782Z,4.55
2024-03-05T19:37:56.179Z,5.28
2024-03-05T19:40:22.823Z,5.35
2024-03-05T19:42:49.779Z,5.65
2024-03-05T19:45:16.398Z,6.07
2024-03-05T19:47:43.124Z,5.15
2024-03-05T19:50:10.299Z,5.43
2024-03-05T19:52:37.264Z,5.15
2024-03-05T19:55:04.174Z,5.80
2024-03-05T19:57:30.785Z,5.03
2024-03-05T20:00:00.319Z,5.13
2024-03-05T20:02:28.947Z,5.50
2024-03-05T20:04:55.635Z,5.95
2024-03-05T20:07:22.260Z,5.45
2024-03-05T20:09:48.974Z,5.43
2024-03-05T20:12:15.774Z,5.22
2024-03-05T20:14:42.630Z,6.03
2024-03-05T20:17:09.393Z,5.55
2024-03-05T20:19:36.038Z,5.70
2024-03-05T20:22:03.026Z,5.72
2024-03-05T20:24:29.641Z,6.30
2024-03-05T20:26:56.190Z,6.15
2024-03-05T20:29:22.768Z,6.28
2024-03-05T20:31:49.469Z,5.88
2024-03-05T20:34:16.078Z,6.15
2024-03-05T20:36:42.673Z,5.65
2024-03-05T20:39:09.264Z,5.60
2024-03-05T20:41:35.860Z,5.55
2024-03-05T20:44:02.492Z,6.32
2024-03-05T20:46:29.129Z,6.53
2024-03-05T20:48:55.765Z,6.30
2024-03-05T20:51:22.498Z,6.35
2024-03-05T20:53:49.094Z,5.78
2024-03-05T20:56:15.665Z,6.13
2024-03-05T20:58:42.247Z,5.57
2024-03-05T21:01:08.957Z,5.88
2024-03-05T21:03:35.756Z,5.00
2024-03-05T21:06:03.174Z,6.07
2024-03-05T21:08:30.084Z,6.10
2024-03-05T21:10:57.163Z,6.32
2024-03-05T21:13:23.808Z,5.93
2024-03-05T21:15:50.431Z,5.35
2024-03-05T21:18:17.065Z,5.95
2024-03-05T21:20:43.731Z,5.85
2024-03-05T21:23:10.406Z,5.85
2024-03-05T21:25:50.026Z,5.88
2024-03-05T21:28:23.605Z,5.13
2024-03-05T21:30:50.187Z,5.47
2024-03-05T21:33:16.825Z,5.13
2024-03-05T21:35:43.454Z,5.47
2024-03-05T21:38:10.039Z,5.43
2024-03-05T21:40:36.673Z,5.68
2024-03-05T21:43:03.222Z,4.38
2024-03-05T21:45:29.798Z,5.70
2024-03-05T21:47:56.455Z,5.57
2024-03-05T21:50:23.113Z,6.15
2024-03-05T21:52:49.739Z,6.10
2024-03-05T21:55:16.844Z,6.57
2024-03-05T21:57:43.556Z,5.55
2024-03-05T22:00:10.598Z,5.88
2024-03-05T22:02:38.154Z,5.60
2024-03-05T22:05:04.953Z,5.97
2024-03-05T22:07:31.594Z,6.00
2024-03-05T22:09:58.175Z,5.70
2024-03-05T22:12:24.740Z,5.68
2024-03-05T22:14:51.346Z,6.00
2024-03-05T22:17:17.940Z,5.47
2024-03-05T22:19:44.932Z,5.82
2024-03-05T22:22:11.529Z,4.85
2024-03-05T22:24:38.167Z,6.10
2024-03-05T22:27:04.706Z,5.57
2024-03-05T22:29:31.253Z,5.05
2024-03-05T22:31:57.947Z,5.93
2024-03-05T22:34:24.818Z,5.97
2024-03-05T22:36:51.415Z,6.47
2024-03-05T22:39:18.081Z,5.85
2024-03-05T22:41:44.637Z,6.20
2024-03-05T22:44:11.372Z,5.20
2024-03-05T22:46:38.083Z,5.80
2024-03-05T22:49:04.698Z,6.57
2024-03-05T22:51:31.300Z,5.72
2024-03-05T22:53:57.860Z,5.65
2024-03-05T22:56:24.469Z,5.97
2024-03-05T22:58:51.204Z,6.28
2024-03-05T23:01:17.880Z,6.18
2024-03-05T23:03:44.457Z,6.88
2024-03-05T23:06:15.761Z,5.80
2024-03-05T23:08:45.633Z,5.93
2024-03-05T23:11:12.273Z,5.43
2024-03-05T23:13:38.997Z,6.07
2024-03-05T23:16:05.750Z,7.65
2024-03-05T23:18:32.305Z,5.15
2024-03-05T23:20:58.866Z,6.45
2024-03-05T23:23:25.446Z,5.82
2024-03-05T23:25:52.124Z,5.85
2024-03-05T23:28:18.716Z,6.13
2024-03-05T23:30:46.436Z,6.32
2024-03-05T23:33:13.107Z,6.53
2024-03-05T23:35:39.697Z,5.25
2024-03-05T23:38:06.287Z,5.15
2024-03-05T23:40:32.982Z,6.15
2024-03-05T23:42:59.587Z,5.82
2024-03-05T23:45:26.186Z,6.00
2024-03-05T23:47:52.816Z,6.03
2024-03-05T23:50:19.560Z,5.57
2024-03-05T23:52:46.172Z,5.32
2024-03-05T23:55:12.787Z,6.18
2024-03-05T23:57:39.366Z,6.57
